Skip Navigation Links Skip Navigation Links

Current Weather

Waterbury-Oxford, Oxford, Conn.

For information only: do not use for flight planning or navigation.
Latest weather
Observation time Thursday, November 21, 2019 4:51 PM EST
Local time Thursday, November 21, 2019 5:28 PM EST
Flight conditions Visual Meteorological Conditions
Winds
Wind speed calm
Visibility 10 mi.
Sky condition
Ceiling unlimited
Sky clear
Temperature 43°F
Dewpoint 30°F
Altimeter 30.08 in.Hg
Derived measurements
Relative humidity 60%
Wind chill 43°F
Density altitude -442 ft.
Sea-level pressure 30.13 in.Hg
Remarks
Automated weather observing station with precipitation discriminator.
METAR KOXC 212151Z 00000KT 10SM CLR 06/M01 A3008 RMK AO2 SLP204 T00611011

Settings

Location code

InnerDrive.Weather 4.0.6770.0 Release CLR 4.0.30319.42000
Copyright ©2018 Inner Drive Technology. All rights reserved. Portions Copyright ©1986-2018 David Braverman.

Find weather

Site navigation


Skip Navigation Links

Place info

Page info

PayPal - The safer, easier way to pay online!

Return home.

Copyright ©2019 Inner Drive Technology. Purveyors of fine, hand-crafted computer software. Page printed 2019-11-21T22:28:45 UTC.